TFM - Tactical Decision Aid
ID: Runway Winds: CIG/VIS Threshold:

KSTL - St Louis/Lambert Int, MO, US

Updated at: 1226 UTC 15 Jul 2020
Latest TAF at: 1129 UTC 15 Jul 2020

TAF Board

Time1151Z 15/13Z 15/14Z 15/15Z 15/16Z 15/17Z 15/18Z 15/19Z 15/20Z 15/21Z 15/22Z 15/23Z 16/00Z 16/01Z>>
Type OBS PRVL PRVL PRVL PRVL PRVL PRVL PRVL PRVL PRVL
  [TEMP]  
PRVL
  [TEMP]  
PRVL
  [TEMP]  
PRVL PRVL
VIS 10 >6 >6 >6 >6 >6 >6 >6 >6 >6
  [3]  
>6
  [3]  
>6
  [3]  
>6 >6
CIG 75 50 50 50 50 50 50 50 50 50
  [50]  
50
  [50]  
50
  [50]  
50 45
Cover OVC BKN BKN BKN BKN BKN BKN BKN BKN BKN
  [BKN]  
BKN
  [BKN]  
BKN
  [BKN]  
BKN OVC
FltCat VFR VFR VFR VFR VFR VFR VFR VFR VFR VFR
  [MVFR]  
VFR
  [MVFR]  
VFR
  [MVFR]  
VFR VFR
WX -- -- -- -- -- -- -- -- -- VCTS
  [TSRA]  
VCTS
  [TSRA]  
VCTS
  [TSRA]  
VCTS --
WDir 140 140 140 140 140 140 140 140 140 160
[160]
160
[160]
160
[160]
160 300
WSpd 9 9 9 9 9 9 9 9 9 11
  [11]  
11
  [11]  
11
  [11]  
11 6
WGst -- -- -- -- -- -- -- -- -- --
  [--]  
--
  [--]  
--
  [--]  
-- --

TDA Impact Legend

  None Marginal Slight Moderate High
Visibility (sm) >5 3≤X≤5 1≤X<3 0.5≤X<1 <0.5
Ceiling (100 ft) >30 10≤X≤30 4≤X<10 2≤X<4 <2
Wind Speed (kt) <15 15≤X<25 25≤X<30 ≥30
Wind Gust (kt) <15 15≤X<25 25≤X<35 ≥35
Weather No Wx Reported VCTS -TS,-FZRA TS,FZRA +TS,+FZRA
TAF
KSTL 151129Z 1512/1618 14009KT P6SM BKN050
  FM152100 16011KT P6SM VCTS BKN050CB
  TEMPO 1521/1524 3SM TSRA
  FM160100 30006KT P6SM OVC045
  FM161200 33005KT P6SM BKN015


METAR
KSTL 151151Z 14009KT 10SM SCT039 BKN075 OVC250 26/19 A2998 RMK AO2 SLP137 TCU DSNT W T02560194 10272 20239 53000
KSTL 151051Z 13010KT 10SM BKN046 OVC250 25/19 A2997 RMK AO2 SLP133 T02500189
KSTL 150951Z 12007KT 10SM FEW055 SCT250 24/19 A2996 RMK AO2 SLP131 T02440194

Radar Display
Forecast Discussion